createdAt,value
2017-11-14T00:00:55.297Z,2.93
2017-11-14T00:02:03.911Z,2.94
2017-11-14T00:03:12.533Z,2.95
2017-11-14T00:04:21.162Z,2.91
2017-11-14T00:05:29.791Z,2.93
2017-11-14T00:06:38.414Z,2.97
2017-11-14T00:07:47.029Z,2.93
2017-11-14T00:08:55.656Z,2.79
2017-11-14T00:10:04.298Z,2.95
2017-11-14T00:11:12.916Z,2.93
2017-11-14T00:12:21.533Z,2.87
2017-11-14T00:13:30.163Z,2.85
2017-11-14T00:14:38.782Z,2.88
2017-11-14T00:15:47.404Z,2.98
2017-11-14T00:16:56.034Z,2.91
2017-11-14T00:18:04.655Z,2.85
2017-11-14T00:19:13.275Z,2.87
2017-11-14T00:20:21.896Z,2.94
2017-11-14T00:21:30.510Z,2.87
2017-11-14T00:22:39.138Z,2.82
2017-11-14T00:23:47.757Z,2.73
2017-11-14T00:24:56.710Z,2.87
2017-11-14T00:26:05.341Z,2.9
2017-11-14T00:27:13.966Z,2.83
2017-11-14T00:28:22.577Z,2.82
2017-11-14T00:29:31.202Z,2.91
2017-11-14T00:30:39.821Z,2.79
2017-11-14T00:31:48.432Z,2.77
2017-11-14T00:32:57.055Z,2.83
2017-11-14T00:34:06.033Z,2.83
2017-11-14T00:35:14.637Z,2.87
2017-11-14T00:36:23.261Z,2.8
2017-11-14T00:37:31.878Z,2.87
2017-11-14T00:38:40.502Z,2.85
2017-11-14T00:39:49.463Z,2.95
2017-11-14T00:40:58.407Z,3
2017-11-14T00:42:07.033Z,2.94
2017-11-14T00:43:15.651Z,3.03
2017-11-14T00:44:24.274Z,3.03
2017-11-14T00:45:32.903Z,2.98
2017-11-14T00:46:41.510Z,3.05
2017-11-14T00:47:50.138Z,3.05
2017-11-14T00:48:58.749Z,3.01
2017-11-14T00:50:07.365Z,2.93
2017-11-14T00:51:15.986Z,3.01
2017-11-14T00:52:24.604Z,2.94
2017-11-14T00:53:33.228Z,2.98
2017-11-14T00:54:41.847Z,3.05
2017-11-14T00:55:50.464Z,3.03
2017-11-14T00:56:59.084Z,3
2017-11-14T00:58:07.710Z,3.03
2017-11-14T00:59:16.324Z,2.97
2017-11-14T01:00:24.946Z,3
2017-11-14T01:01:33.562Z,3.03
2017-11-14T01:02:42.175Z,3.09
2017-11-14T01:03:50.799Z,3.03
2017-11-14T01:04:59.429Z,3.08
2017-11-14T01:06:08.056Z,3.01
2017-11-14T01:07:16.689Z,3.11
2017-11-14T01:08:25.276Z,3.11
2017-11-14T01:09:33.898Z,3.24
2017-11-14T01:10:42.871Z,3.18
2017-11-14T01:11:51.482Z,3.21
2017-11-14T01:13:00.117Z,3.19
2017-11-14T01:14:08.736Z,3.26
2017-11-14T01:15:17.358Z,3.26
2017-11-14T01:16:25.979Z,3.24
2017-11-14T01:17:34.593Z,3.26
2017-11-14T01:18:43.218Z,3.21
2017-11-14T01:19:51.839Z,3.18
2017-11-14T01:21:00.792Z,3.24
2017-11-14T01:22:09.411Z,3.3
2017-11-14T01:23:18.029Z,3.33
2017-11-14T01:24:26.653Z,3.45
2017-11-14T01:25:35.274Z,3.3
2017-11-14T01:26:43.888Z,3.37
2017-11-14T01:27:52.512Z,3.33
2017-11-14T01:29:01.139Z,3.4
2017-11-14T01:30:10.091Z,3.4
2017-11-14T01:31:18.713Z,3.33
2017-11-14T01:32:27.332Z,3.33
2017-11-14T01:33:35.956Z,3.31
2017-11-14T01:34:44.910Z,3.26
2017-11-14T01:35:53.527Z,3.27
2017-11-14T01:37:02.150Z,3.24
2017-11-14T01:38:10.765Z,3.22
2017-11-14T01:39:19.378Z,3.15
2017-11-14T01:40:27.998Z,3.12
2017-11-14T01:41:36.620Z,3.19
2017-11-14T01:42:45.243Z,3.16
2017-11-14T01:43:53.865Z,3.13
2017-11-14T01:45:02.482Z,3.09
2017-11-14T01:46:11.102Z,3.11
2017-11-14T01:47:19.719Z,3.12
2017-11-14T01:48:28.333Z,3.13
2017-11-14T01:49:36.958Z,2.94
2017-11-14T01:50:45.576Z,3.05
2017-11-14T01:51:54.196Z,3
2017-11-14T01:53:02.822Z,2.97
2017-11-14T01:54:11.437Z,2.97
2017-11-14T01:55:20.401Z,2.97
2017-11-14T01:56:29.019Z,2.88
2017-11-14T01:57:37.633Z,2.83
2017-11-14T01:58:46.257Z,2.9
2017-11-14T01:59:54.880Z,2.88
2017-11-14T02:01:03.500Z,2.9
2017-11-14T02:02:12.120Z,2.82
2017-11-14T02:03:20.745Z,2.77
2017-11-14T02:04:29.362Z,2.9
2017-11-14T02:05:37.986Z,2.91
2017-11-14T02:06:46.928Z,2.79
2017-11-14T02:07:55.551Z,2.85
2017-11-14T02:09:04.174Z,2.87
2017-11-14T02:10:12.793Z,2.88
2017-11-14T02:11:21.410Z,2.85
2017-11-14T02:12:30.036Z,2.82
2017-11-14T02:13:38.656Z,2.82
2017-11-14T02:14:47.277Z,2.82
2017-11-14T02:15:55.904Z,2.87
2017-11-14T02:17:04.520Z,2.85
2017-11-14T02:18:13.138Z,2.79
2017-11-14T02:19:21.756Z,2.88
2017-11-14T02:20:30.372Z,2.82
2017-11-14T02:21:38.990Z,2.73
2017-11-14T02:22:47.608Z,2.79
2017-11-14T02:23:56.223Z,2.79
2017-11-14T02:25:04.848Z,2.82
2017-11-14T02:26:13.471Z,2.9
2017-11-14T02:27:22.089Z,2.79
2017-11-14T02:28:30.712Z,2.76
2017-11-14T02:29:39.666Z,2.82
2017-11-14T02:30:48.281Z,2.9
2017-11-14T02:31:57.239Z,2.83
2017-11-14T02:33:05.856Z,2.9
2017-11-14T02:34:14.481Z,2.88
2017-11-14T02:35:23.439Z,2.82
2017-11-14T02:36:32.053Z,2.97
2017-11-14T02:37:40.673Z,3.01
2017-11-14T02:38:49.302Z,3.01
2017-11-14T02:39:58.246Z,3.01
2017-11-14T02:41:06.867Z,3.11
2017-11-14T02:42:15.485Z,3.11
2017-11-14T02:43:24.112Z,3.09
2017-11-14T02:44:32.730Z,3.21
2017-11-14T02:45:41.343Z,3.24
2017-11-14T02:46:49.965Z,3.24
2017-11-14T02:47:58.581Z,3.24
2017-11-14T02:49:07.211Z,3.24
2017-11-14T02:50:16.496Z,3.22
2017-11-14T02:51:25.110Z,3.22
2017-11-14T02:52:33.739Z,3.21
2017-11-14T02:53:42.353Z,3.21
2017-11-14T02:54:50.971Z,3.21
2017-11-14T02:55:59.599Z,3.18
2017-11-14T02:57:08.229Z,3.21
2017-11-14T02:58:16.840Z,3.26
2017-11-14T02:59:25.826Z,3.27
2017-11-14T03:00:34.439Z,3.27
2017-11-14T03:01:43.052Z,3.18
2017-11-14T03:02:51.676Z,3.4
2017-11-14T03:04:00.634Z,3.31
2017-11-14T03:05:09.253Z,3.31
2017-11-14T03:06:17.875Z,3.36
2017-11-14T03:07:26.489Z,3.31
2017-11-14T03:08:35.119Z,3.33
2017-11-14T03:09:43.738Z,3.29
2017-11-14T03:10:52.354Z,3.34
2017-11-14T03:12:00.976Z,3.43
2017-11-14T03:13:09.925Z,3.41
2017-11-14T03:14:18.544Z,3.43
2017-11-14T03:15:27.158Z,3.48
2017-11-14T03:16:35.790Z,3.37
2017-11-14T03:17:44.408Z,3.4
2017-11-14T03:18:53.031Z,3.45
2017-11-14T03:20:01.648Z,3.41
2017-11-14T03:21:10.269Z,3.41
2017-11-14T03:22:18.894Z,3.46
2017-11-14T03:23:27.517Z,3.52
2017-11-14T03:24:36.460Z,3.48
2017-11-14T03:25:45.085Z,3.41
2017-11-14T03:26:53.705Z,3.37
2017-11-14T03:28:02.319Z,3.56
2017-11-14T03:29:10.948Z,3.52
2017-11-14T03:30:19.576Z,3.52
2017-11-14T03:31:28.185Z,3.56
2017-11-14T03:32:36.812Z,3.5
2017-11-14T03:33:45.436Z,3.58
2017-11-14T03:34:54.067Z,3.49
2017-11-14T03:36:02.683Z,3.58
2017-11-14T03:37:11.299Z,3.5
2017-11-14T03:38:19.927Z,3.5
2017-11-14T03:39:28.554Z,3.49
2017-11-14T03:40:37.166Z,3.49
2017-11-14T03:41:45.782Z,3.5
2017-11-14T03:42:54.788Z,3.56
2017-11-14T03:44:03.414Z,3.52
2017-11-14T03:45:12.033Z,3.36
2017-11-14T03:46:20.655Z,3.46
2017-11-14T03:47:29.271Z,3.46
2017-11-14T03:48:37.893Z,3.48
2017-11-14T03:49:46.515Z,3.46
2017-11-14T03:50:55.129Z,3.46
2017-11-14T03:52:03.750Z,3.43
2017-11-14T03:53:12.380Z,3.37
2017-11-14T03:54:20.994Z,3.36
2017-11-14T03:55:29.613Z,3.34
2017-11-14T03:56:38.241Z,3.43
2017-11-14T03:57:46.858Z,3.36
2017-11-14T03:58:55.475Z,3.37
2017-11-14T04:00:04.099Z,3.31
2017-11-14T04:01:12.716Z,3.21
2017-11-14T04:02:21.338Z,3.22
2017-11-14T04:03:29.956Z,3.24
2017-11-14T04:04:38.572Z,3.22
2017-11-14T04:05:47.540Z,3.22
2017-11-14T04:06:56.162Z,3.27
2017-11-14T04:08:04.773Z,3.21
2017-11-14T04:09:13.390Z,3.18
2017-11-14T04:10:22.013Z,3.16
2017-11-14T04:11:30.624Z,3.13
2017-11-14T04:12:39.245Z,3.12
2017-11-14T04:13:48.213Z,3.13
2017-11-14T04:14:56.816Z,3.09
2017-11-14T04:16:05.444Z,2.98
2017-11-14T04:17:14.069Z,2.93
2017-11-14T04:18:22.691Z,3.05
2017-11-14T04:19:31.313Z,2.95
2017-11-14T04:20:39.925Z,2.93
2017-11-14T04:21:48.886Z,2.95
2017-11-14T04:22:57.512Z,2.83
2017-11-14T04:24:06.124Z,2.88
2017-11-14T04:25:14.745Z,2.9
2017-11-14T04:26:23.374Z,2.8
2017-11-14T04:27:31.992Z,2.87
2017-11-14T04:28:40.611Z,2.87
2017-11-14T04:29:49.238Z,2.83
2017-11-14T04:30:57.860Z,2.85
2017-11-14T04:32:06.479Z,2.87
2017-11-14T04:33:15.098Z,2.87
2017-11-14T04:34:23.718Z,2.91
2017-11-14T04:35:32.349Z,2.8
2017-11-14T04:36:41.302Z,2.82
2017-11-14T04:37:49.949Z,2.85
2017-11-14T04:38:58.537Z,2.9
2017-11-14T04:40:07.160Z,2.79
2017-11-14T04:41:15.783Z,2.85
2017-11-14T04:42:24.398Z,2.88
2017-11-14T04:43:33.019Z,2.87
2017-11-14T04:44:41.642Z,2.83
2017-11-14T04:45:50.262Z,2.8
2017-11-14T04:46:58.887Z,2.79
2017-11-14T04:48:07.501Z,2.93
2017-11-14T04:49:16.124Z,2.87
2017-11-14T04:50:24.748Z,2.85
2017-11-14T04:51:33.358Z,2.9
2017-11-14T04:52:41.983Z,2.91
2017-11-14T04:53:50.605Z,2.9
2017-11-14T04:54:59.225Z,2.82
2017-11-14T04:56:07.841Z,2.83
2017-11-14T04:57:16.810Z,2.83
2017-11-14T04:58:25.429Z,2.88
2017-11-14T04:59:34.050Z,2.82
2017-11-14T05:00:42.660Z,2.7
2017-11-14T05:01:51.280Z,2.77
2017-11-14T05:02:59.907Z,2.75
2017-11-14T05:04:08.850Z,2.76
2017-11-14T05:05:17.471Z,2.73
2017-11-14T05:06:26.100Z,2.79
2017-11-14T05:07:34.712Z,2.72
2017-11-14T05:08:43.335Z,2.72
2017-11-14T05:09:51.946Z,2.73
2017-11-14T05:11:00.569Z,2.62
2017-11-14T05:12:09.188Z,2.7
2017-11-14T05:13:17.804Z,2.7
2017-11-14T05:14:26.431Z,2.79
2017-11-14T05:15:35.045Z,2.65
2017-11-14T05:16:43.663Z,2.62
2017-11-14T05:17:52.285Z,2.62
2017-11-14T05:19:00.897Z,2.62
2017-11-14T05:20:09.847Z,2.59
2017-11-14T05:21:18.470Z,2.59
2017-11-14T05:22:27.085Z,2.59
2017-11-14T05:23:35.699Z,2.59
2017-11-14T05:24:44.324Z,2.57
2017-11-14T05:25:52.940Z,2.59
2017-11-14T05:27:01.557Z,2.57
2017-11-14T05:28:10.183Z,2.52
2017-11-14T05:29:19.130Z,2.61
2017-11-14T05:30:27.751Z,2.52
2017-11-14T05:31:36.368Z,2.54
2017-11-14T05:32:44.981Z,2.57
2017-11-14T05:33:53.608Z,2.54
2017-11-14T05:35:02.233Z,2.52
2017-11-14T05:36:11.189Z,2.52
2017-11-14T05:37:20.131Z,2.52
2017-11-14T05:38:28.755Z,2.55
2017-11-14T05:39:37.374Z,2.54
2017-11-14T05:40:45.991Z,2.55
2017-11-14T05:41:54.607Z,2.51
2017-11-14T05:43:03.232Z,2.55
2017-11-14T05:44:11.851Z,2.5
2017-11-14T05:45:20.483Z,2.55
2017-11-14T05:46:29.087Z,2.46
2017-11-14T05:47:37.712Z,2.47
2017-11-14T05:48:46.332Z,2.52
2017-11-14T05:49:54.951Z,2.52
2017-11-14T05:51:03.917Z,2.54
2017-11-14T05:52:12.543Z,2.52
2017-11-14T05:53:21.158Z,2.57
2017-11-14T05:54:29.777Z,2.52
2017-11-14T05:55:38.400Z,2.55
2017-11-14T05:56:47.020Z,2.5
2017-11-14T05:57:55.641Z,2.52
2017-11-14T05:59:04.256Z,2.5
2017-11-14T06:00:12.873Z,2.55
2017-11-14T06:01:21.513Z,2.58
2017-11-14T06:02:30.115Z,2.64
2017-11-14T06:03:39.075Z,2.59
2017-11-14T06:04:47.703Z,2.62
2017-11-14T06:05:56.322Z,2.64
2017-11-14T06:07:04.937Z,2.76
2017-11-14T06:08:13.556Z,2.76
2017-11-14T06:09:22.177Z,2.72
2017-11-14T06:10:30.791Z,2.85
2017-11-14T06:11:39.416Z,2.82
2017-11-14T06:12:48.033Z,2.93
2017-11-14T06:13:56.663Z,2.85
2017-11-14T06:15:05.280Z,2.93
2017-11-14T06:16:13.898Z,3.03
2017-11-14T06:17:22.517Z,3.01
2017-11-14T06:18:31.140Z,2.97
2017-11-14T06:19:39.750Z,3.06
2017-11-14T06:20:48.372Z,3.11
2017-11-14T06:21:56.993Z,3.09
2017-11-14T06:23:05.604Z,3.13
2017-11-14T06:24:14.226Z,3.22
2017-11-14T06:25:22.845Z,3.19
2017-11-14T06:26:31.460Z,3.27
2017-11-14T06:27:40.090Z,3.18
2017-11-14T06:28:48.697Z,3.34
2017-11-14T06:29:57.320Z,3.43
2017-11-14T06:31:06.278Z,3.36
2017-11-14T06:32:14.887Z,3.37
2017-11-14T06:33:23.511Z,3.49
2017-11-14T06:34:32.134Z,3.49
2017-11-14T06:35:40.757Z,3.43
2017-11-14T06:36:49.379Z,3.48
2017-11-14T06:37:57.991Z,3.56
2017-11-14T06:39:06.639Z,3.59
2017-11-14T06:40:15.238Z,3.49
2017-11-14T06:41:24.183Z,3.53
2017-11-14T06:42:32.807Z,3.53
2017-11-14T06:43:41.426Z,3.61
2017-11-14T06:44:50.044Z,3.61
2017-11-14T06:45:58.671Z,3.64
2017-11-14T06:47:07.282Z,3.63
2017-11-14T06:48:15.905Z,3.66
2017-11-14T06:49:24.530Z,3.68
2017-11-14T06:50:33.472Z,3.58
2017-11-14T06:51:42.097Z,3.77
2017-11-14T06:52:50.717Z,3.64
2017-11-14T06:53:59.337Z,3.7
2017-11-14T06:55:07.952Z,3.7
2017-11-14T06:56:16.577Z,3.71
2017-11-14T06:57:25.195Z,3.71
2017-11-14T06:58:33.817Z,3.7
2017-11-14T06:59:42.433Z,3.7
2017-11-14T07:00:51.055Z,3.7
2017-11-14T07:01:59.677Z,3.71
2017-11-14T07:03:08.297Z,3.78
2017-11-14T07:04:16.915Z,3.85
2017-11-14T07:05:25.540Z,3.88
2017-11-14T07:06:34.159Z,3.81
2017-11-14T07:07:42.775Z,3.89
2017-11-14T07:08:51.402Z,3.91
2017-11-14T07:10:00.019Z,3.91
2017-11-14T07:11:08.637Z,3.92
2017-11-14T07:12:17.250Z,3.95
2017-11-14T07:13:25.872Z,3.96
2017-11-14T07:14:34.501Z,3.99
2017-11-14T07:15:43.121Z,3.99
2017-11-14T07:16:51.739Z,4.02
2017-11-14T07:18:00.367Z,4.04
2017-11-14T07:19:08.985Z,4.02
2017-11-14T07:20:17.603Z,4.09
2017-11-14T07:21:26.227Z,4.09
2017-11-14T07:22:34.845Z,4.13
2017-11-14T07:23:43.796Z,4.12
2017-11-14T07:24:52.416Z,4.14
2017-11-14T07:26:01.037Z,4.14
2017-11-14T07:27:09.995Z,4.28
2017-11-14T07:28:18.945Z,4.31
2017-11-14T07:29:27.562Z,4.31
2017-11-14T07:30:36.185Z,4.38
2017-11-14T07:31:44.811Z,4.39
2017-11-14T07:32:53.424Z,4.38
2017-11-14T07:34:02.047Z,4.42
2017-11-14T07:35:10.672Z,4.49
2017-11-14T07:36:19.298Z,4.39
2017-11-14T07:37:27.916Z,4.46
2017-11-14T07:38:36.533Z,4.49
2017-11-14T07:39:45.485Z,4.46
2017-11-14T07:40:54.098Z,4.52
2017-11-14T07:42:03.066Z,4.48
2017-11-14T07:43:12.027Z,4.56
2017-11-14T07:44:20.645Z,4.5
2017-11-14T07:45:29.272Z,4.5
2017-11-14T07:46:37.891Z,4.63
2017-11-14T07:47:46.511Z,4.68
2017-11-14T07:48:55.475Z,4.68
2017-11-14T07:50:04.088Z,4.74
2017-11-14T07:51:12.702Z,4.67
2017-11-14T07:52:21.324Z,4.61
2017-11-14T07:53:30.283Z,4.7
2017-11-14T07:54:38.906Z,4.61
2017-11-14T07:55:47.527Z,4.7
2017-11-14T07:56:56.144Z,4.68
2017-11-14T07:58:04.763Z,4.79
2017-11-14T07:59:13.388Z,4.82
2017-11-14T08:00:22.003Z,4.79
2017-11-14T08:01:30.628Z,4.71
2017-11-14T08:02:39.249Z,4.79
2017-11-14T08:03:47.865Z,4.78
2017-11-14T08:04:56.485Z,4.75
2017-11-14T08:06:05.112Z,4.87
2017-11-14T08:07:13.730Z,4.84
2017-11-14T08:08:22.349Z,4.89
2017-11-14T08:09:30.976Z,4.92
2017-11-14T08:10:39.596Z,4.9
2017-11-14T08:11:48.218Z,4.9
2017-11-14T08:12:56.832Z,4.89
2017-11-14T08:14:05.854Z,4.98
2017-11-14T08:15:14.426Z,5.02
2017-11-14T08:16:23.038Z,5.01
2017-11-14T08:17:31.659Z,5
2017-11-14T08:18:40.282Z,5.01
2017-11-14T08:19:48.898Z,5.05
2017-11-14T08:20:57.514Z,5.01
2017-11-14T08:22:06.143Z,5.04
2017-11-14T08:23:14.769Z,4.89
2017-11-14T08:24:23.388Z,5
2017-11-14T08:25:32.008Z,5.02
2017-11-14T08:26:40.631Z,4.95
2017-11-14T08:27:50.439Z,4.95
2017-11-14T08:28:59.331Z,4.95
2017-11-14T08:30:09.561Z,4.94
2017-11-14T08:31:19.019Z,4.94
2017-11-14T08:32:28.194Z,5
2017-11-14T08:33:36.818Z,5.02
2017-11-14T08:34:45.437Z,4.98
2017-11-14T08:35:54.059Z,5.04
2017-11-14T08:37:02.687Z,4.98
2017-11-14T08:38:11.308Z,5.07
2017-11-14T08:39:19.933Z,5.05
2017-11-14T08:40:28.547Z,5.1
2017-11-14T08:41:37.197Z,5.1
2017-11-14T08:42:45.820Z,5.15
2017-11-14T08:43:54.440Z,5.16
2017-11-14T08:45:03.062Z,5.16
2017-11-14T08:46:11.691Z,5.15
2017-11-14T08:47:20.314Z,5.19
2017-11-14T08:48:28.928Z,5.18
2017-11-14T08:49:37.896Z,5.25
2017-11-14T08:50:46.513Z,5.13
2017-11-14T08:51:55.131Z,5.16
2017-11-14T08:53:03.755Z,5.36
2017-11-14T08:54:12.369Z,5.34
2017-11-14T08:55:20.994Z,5.38
2017-11-14T08:56:29.614Z,5.34
2017-11-14T08:57:38.230Z,5.38
2017-11-14T08:58:47.195Z,5.4
2017-11-14T08:59:55.814Z,5.46
2017-11-14T09:01:04.434Z,5.51
2017-11-14T09:02:13.059Z,5.65
2017-11-14T09:03:21.688Z,5.64
2017-11-14T09:04:30.643Z,5.69
2017-11-14T09:05:39.263Z,5.72
2017-11-14T09:06:47.887Z,5.73
2017-11-14T09:07:56.526Z,5.76
2017-11-14T09:09:05.127Z,5.8
2017-11-14T09:10:13.750Z,5.91
2017-11-14T09:11:22.368Z,5.9
2017-11-14T09:12:30.986Z,5.87
2017-11-14T09:13:39.612Z,5.92
2017-11-14T09:14:48.232Z,5.95
2017-11-14T09:15:56.853Z,5.97
2017-11-14T09:17:05.514Z,5.99
2017-11-14T09:18:14.105Z,6.06
2017-11-14T09:19:23.061Z,6.01
2017-11-14T09:20:31.686Z,6.12
2017-11-14T09:21:40.645Z,6.09
2017-11-14T09:22:49.259Z,6.19
2017-11-14T09:23:57.884Z,6.13
2017-11-14T09:25:07.181Z,6.22
2017-11-14T09:26:15.806Z,6.19
2017-11-14T09:27:24.431Z,6.2
2017-11-14T09:28:33.085Z,6.29
2017-11-14T09:29:42.043Z,6.26
2017-11-14T09:30:50.662Z,6.29
2017-11-14T09:31:59.296Z,6.32
2017-11-14T09:33:07.910Z,6.34
2017-11-14T09:34:16.531Z,6.39
2017-11-14T09:35:25.491Z,6.43
2017-11-14T09:36:34.113Z,6.39
2017-11-14T09:37:43.068Z,6.43
2017-11-14T09:38:51.684Z,6.49
2017-11-14T09:40:00.325Z,6.5
2017-11-14T09:41:08.941Z,6.52
2017-11-14T09:42:17.556Z,6.64
2017-11-14T09:43:26.184Z,6.54
2017-11-14T09:44:35.148Z,6.71
2017-11-14T09:45:43.767Z,6.75
2017-11-14T09:46:52.392Z,6.83
2017-11-14T09:48:01.013Z,6.77
2017-11-14T09:49:09.637Z,6.92
2017-11-14T09:50:18.255Z,6.89
2017-11-14T09:51:27.231Z,6.9
2017-11-14T09:52:35.854Z,6.92
2017-11-14T09:53:44.483Z,6.96
2017-11-14T09:54:53.102Z,6.9
2017-11-14T09:56:01.724Z,6.93
2017-11-14T09:57:10.667Z,7.03
2017-11-14T09:58:19.400Z,7.04
2017-11-14T09:59:28.028Z,7.1
2017-11-14T10:00:36.651Z,7.07
2017-11-14T10:01:45.279Z,7.21
2017-11-14T10:02:53.901Z,7.07
2017-11-14T10:04:02.535Z,7.13
2017-11-14T10:05:11.222Z,7.1
2017-11-14T10:06:19.860Z,7.15
2017-11-14T10:07:28.491Z,7.11
2017-11-14T10:08:37.105Z,7.21
2017-11-14T10:09:45.733Z,7.31
2017-11-14T10:10:54.357Z,7.23
2017-11-14T10:12:02.966Z,7.21
2017-11-14T10:13:11.592Z,7.22
2017-11-14T10:14:20.218Z,7.28
2017-11-14T10:15:28.843Z,7.23
2017-11-14T10:16:37.461Z,7.31
2017-11-14T10:17:46.170Z,7.28
2017-11-14T10:18:54.929Z,7.32
2017-11-14T10:20:03.551Z,7.29
2017-11-14T10:21:12.184Z,7.4
2017-11-14T10:22:20.798Z,7.44
2017-11-14T10:23:29.432Z,7.48
2017-11-14T10:24:38.051Z,7.46
2017-11-14T10:25:46.675Z,7.58
2017-11-14T10:26:55.305Z,7.56
2017-11-14T10:28:03.924Z,7.66
2017-11-14T10:29:12.548Z,7.56
2017-11-14T10:30:21.166Z,7.64
2017-11-14T10:31:29.795Z,7.72
2017-11-14T10:32:38.420Z,7.7
2017-11-14T10:33:47.378Z,7.66
2017-11-14T10:34:55.994Z,7.77
2017-11-14T10:36:04.631Z,7.77
2017-11-14T10:37:13.249Z,7.83
2017-11-14T10:38:21.886Z,7.85
2017-11-14T10:39:30.822Z,7.77
2017-11-14T10:40:39.456Z,7.77
2017-11-14T10:41:48.079Z,7.75
2017-11-14T10:42:56.702Z,7.83
2017-11-14T10:44:05.675Z,7.78
2017-11-14T10:45:14.639Z,7.78
2017-11-14T10:46:23.259Z,7.88
2017-11-14T10:47:31.881Z,7.77
2017-11-14T10:48:40.514Z,7.75
2017-11-14T10:49:49.144Z,7.74
2017-11-14T10:50:58.093Z,7.72
2017-11-14T10:52:07.045Z,7.75
2017-11-14T10:53:15.667Z,7.67
2017-11-14T10:54:24.298Z,7.69
2017-11-14T10:55:32.920Z,7.64
2017-11-14T10:56:41.541Z,7.59
2017-11-14T10:57:50.172Z,7.69
2017-11-14T10:58:58.791Z,7.62
2017-11-14T11:00:07.416Z,7.56
2017-11-14T11:01:16.034Z,7.53
2017-11-14T11:02:24.994Z,7.46
2017-11-14T11:03:33.611Z,7.46
2017-11-14T11:04:42.240Z,7.46
2017-11-14T11:05:50.859Z,7.43
2017-11-14T11:06:59.489Z,7.36
2017-11-14T11:08:08.108Z,7.31
2017-11-14T11:09:16.731Z,7.32
2017-11-14T11:10:25.358Z,7.25
2017-11-14T11:11:33.985Z,7.4
2017-11-14T11:12:42.603Z,7.47
2017-11-14T11:13:51.227Z,7.46
2017-11-14T11:14:59.849Z,7.41
2017-11-14T11:16:08.466Z,7.62
2017-11-14T11:17:17.098Z,7.72
2017-11-14T11:18:25.714Z,7.72
2017-11-14T11:19:34.332Z,7.84
2017-11-14T11:20:42.964Z,7.77
2017-11-14T11:21:51.585Z,7.78
2017-11-14T11:23:00.215Z,7.9
2017-11-14T11:24:08.838Z,7.96
2017-11-14T11:25:17.461Z,8.01
2017-11-14T11:26:26.077Z,8.08
2017-11-14T11:27:34.702Z,8.06
2017-11-14T11:28:43.328Z,8.08
2017-11-14T11:29:51.952Z,8.05
2017-11-14T11:31:00.577Z,8.09
2017-11-14T11:32:09.191Z,8.16
2017-11-14T11:33:17.820Z,8.17
2017-11-14T11:34:26.768Z,8.28
2017-11-14T11:35:36.210Z,8.35
2017-11-14T11:36:45.159Z,8.44
2017-11-14T11:37:53.787Z,8.5
2017-11-14T11:39:02.413Z,8.46
2017-11-14T11:40:11.034Z,8.57
2017-11-14T11:41:19.674Z,8.66
2017-11-14T11:42:28.287Z,8.72
2017-11-14T11:43:36.905Z,8.82
2017-11-14T11:44:45.529Z,8.95
2017-11-14T11:45:54.160Z,8.96
2017-11-14T11:47:02.777Z,9.18
2017-11-14T11:48:11.395Z,9.15
2017-11-14T11:49:20.028Z,9.19
2017-11-14T11:50:28.650Z,9.21
2017-11-14T11:51:37.280Z,9.31
2017-11-14T11:52:45.906Z,9.33
2017-11-14T11:53:54.528Z,9.33
2017-11-14T11:55:03.531Z,9.33
2017-11-14T11:56:12.144Z,9.29
2017-11-14T11:57:21.104Z,9.29
2017-11-14T11:58:29.728Z,9.4
2017-11-14T11:59:38.352Z,9.36
2017-11-14T12:00:46.974Z,9.36
2017-11-14T12:01:55.606Z,9.3
2017-11-14T12:03:04.230Z,9.34
2017-11-14T12:04:12.853Z,9.26
2017-11-14T12:05:21.474Z,9.34
2017-11-14T12:06:30.101Z,9.34
2017-11-14T12:07:38.733Z,9.34
2017-11-14T12:08:47.357Z,9.29
2017-11-14T12:09:55.981Z,9.39
2017-11-14T12:11:04.613Z,9.34
2017-11-14T12:12:13.237Z,9.37
2017-11-14T12:13:21.861Z,9.33
2017-11-14T12:14:30.481Z,9.34
2017-11-14T12:15:39.110Z,9.33
2017-11-14T12:16:47.728Z,9.33
2017-11-14T12:17:56.356Z,9.34
2017-11-14T12:19:04.977Z,9.34
2017-11-14T12:20:13.611Z,9.31
2017-11-14T12:21:22.234Z,9.33
2017-11-14T12:22:30.867Z,9.37
2017-11-14T12:23:39.818Z,9.36
2017-11-14T12:24:48.785Z,9.39
2017-11-14T12:25:57.404Z,9.29
2017-11-14T12:27:06.029Z,9.29
2017-11-14T12:28:14.652Z,9.29
2017-11-14T12:29:23.285Z,9.22
2017-11-14T12:30:31.907Z,9.16
2017-11-14T12:31:40.530Z,9.19
2017-11-14T12:32:49.158Z,9.21
2017-11-14T12:33:57.772Z,9.18
2017-11-14T12:35:06.405Z,9.12
2017-11-14T12:36:15.028Z,9.09
2017-11-14T12:37:23.980Z,9.08
2017-11-14T12:38:32.610Z,9.12
2017-11-14T12:39:41.231Z,9.09
2017-11-14T12:40:49.857Z,9.12
2017-11-14T12:41:58.486Z,9.12
2017-11-14T12:43:07.114Z,9.09
2017-11-14T12:44:15.734Z,9.18
2017-11-14T12:45:24.697Z,9.08
2017-11-14T12:46:33.328Z,9.16
2017-11-14T12:47:41.944Z,9.15
2017-11-14T12:48:50.579Z,9.11
2017-11-14T12:49:59.203Z,9.03
2017-11-14T12:51:07.823Z,9.16
2017-11-14T12:52:16.452Z,9.16
2017-11-14T12:53:25.071Z,9.16
2017-11-14T12:54:34.046Z,9.16
2017-11-14T12:55:42.670Z,9.18
2017-11-14T12:56:51.298Z,9.22
2017-11-14T12:58:00.083Z,9.15
2017-11-14T12:59:08.707Z,9.29
2017-11-14T13:00:17.599Z,9.31
2017-11-14T13:01:26.226Z,9.36
2017-11-14T13:02:34.847Z,9.31
2017-11-14T13:03:43.472Z,9.34
2017-11-14T13:04:52.093Z,9.36
2017-11-14T13:06:00.727Z,9.44
2017-11-14T13:07:09.611Z,9.31
2017-11-14T13:08:18.232Z,9.34
2017-11-14T13:09:27.133Z,9.45
2017-11-14T13:10:35.760Z,9.4
2017-11-14T13:11:44.382Z,9.39
2017-11-14T13:12:53.007Z,9.47
2017-11-14T13:14:01.635Z,9.42
2017-11-14T13:15:10.266Z,9.37
2017-11-14T13:16:19.163Z,9.39
2017-11-14T13:17:27.791Z,9.39
2017-11-14T13:18:36.419Z,9.4
2017-11-14T13:19:45.317Z,9.44
2017-11-14T13:20:53.932Z,9.42
2017-11-14T13:22:02.577Z,9.44
2017-11-14T13:23:11.184Z,9.42
2017-11-14T13:24:19.802Z,9.42
2017-11-14T13:25:28.433Z,9.47
2017-11-14T13:26:37.063Z,9.51
2017-11-14T13:27:45.691Z,9.4
2017-11-14T13:28:54.320Z,9.37
2017-11-14T13:30:02.931Z,9.31
2017-11-14T13:31:11.556Z,9.34
2017-11-14T13:32:20.181Z,9.31
2017-11-14T13:33:28.814Z,9.3
2017-11-14T13:34:37.439Z,9.37
2017-11-14T13:35:46.061Z,9.26
2017-11-14T13:36:54.687Z,9.26
2017-11-14T13:38:03.317Z,9.27
2017-11-14T13:39:11.938Z,9.27
2017-11-14T13:40:20.573Z,9.19
2017-11-14T13:41:29.197Z,9.16
2017-11-14T13:42:37.815Z,9.12
2017-11-14T13:43:46.451Z,9.05
2017-11-14T13:44:55.345Z,9.09
2017-11-14T13:46:03.969Z,9.03
2017-11-14T13:47:12.603Z,9.08
2017-11-14T13:48:21.223Z,9
2017-11-14T13:49:29.847Z,8.96
2017-11-14T13:50:38.476Z,8.99
2017-11-14T13:51:47.095Z,8.96
2017-11-14T13:52:55.748Z,9.03
2017-11-14T13:54:04.379Z,8.99
2017-11-14T13:55:13.005Z,8.97
2017-11-14T13:56:21.625Z,8.92
2017-11-14T13:57:30.257Z,8.9
2017-11-14T13:58:38.881Z,8.89
2017-11-14T13:59:47.517Z,8.92
2017-11-14T14:00:56.138Z,8.87
2017-11-14T14:02:04.755Z,8.95
2017-11-14T14:03:13.384Z,8.9
2017-11-14T14:04:22.008Z,8.87
2017-11-14T14:05:30.635Z,8.84
2017-11-14T14:06:39.274Z,8.81
2017-11-14T14:07:47.899Z,8.78
2017-11-14T14:08:56.524Z,8.81
2017-11-14T14:10:05.155Z,8.84
2017-11-14T14:11:13.774Z,8.82
2017-11-14T14:12:22.401Z,8.74
2017-11-14T14:13:31.026Z,8.78
2017-11-14T14:14:39.654Z,8.78
2017-11-14T14:15:48.272Z,8.78
2017-11-14T14:16:56.903Z,8.66
2017-11-14T14:18:05.788Z,8.66
2017-11-14T14:19:14.418Z,8.74
2017-11-14T14:20:23.040Z,8.6
2017-11-14T14:21:31.663Z,8.71
2017-11-14T14:22:40.288Z,8.69
2017-11-14T14:23:48.907Z,8.63
2017-11-14T14:24:57.547Z,8.68
2017-11-14T14:26:06.159Z,8.63
2017-11-14T14:27:14.783Z,8.66
2017-11-14T14:28:23.412Z,8.59
2017-11-14T14:29:32.036Z,8.66
2017-11-14T14:30:40.659Z,8.69
2017-11-14T14:31:49.550Z,8.63
2017-11-14T14:32:58.172Z,8.61
2017-11-14T14:34:06.804Z,8.6
2017-11-14T14:35:15.451Z,8.71
2017-11-14T14:36:24.048Z,8.68
2017-11-14T14:37:32.677Z,8.61
2017-11-14T14:38:41.562Z,8.61
2017-11-14T14:39:50.184Z,8.64
2017-11-14T14:40:58.813Z,8.63
2017-11-14T14:42:07.448Z,8.59
2017-11-14T14:43:16.065Z,8.6
2017-11-14T14:44:24.691Z,8.59
2017-11-14T14:45:33.583Z,8.61
2017-11-14T14:46:42.217Z,8.63
2017-11-14T14:47:50.843Z,8.6
2017-11-14T14:48:59.460Z,8.64
2017-11-14T14:50:08.353Z,8.57
2017-11-14T14:51:16.981Z,8.59
2017-11-14T14:52:25.599Z,8.6
2017-11-14T14:53:34.225Z,8.57
2017-11-14T14:54:42.857Z,8.61
2017-11-14T14:55:51.473Z,8.52
2017-11-14T14:57:00.100Z,8.53
2017-11-14T14:58:08.726Z,8.57
2017-11-14T14:59:17.347Z,8.53
2017-11-14T15:00:25.981Z,8.54
2017-11-14T15:01:34.865Z,8.46
2017-11-14T15:02:43.495Z,8.52
2017-11-14T15:03:52.124Z,8.5
2017-11-14T15:05:00.744Z,8.42
2017-11-14T15:06:09.370Z,8.49
2017-11-14T15:07:17.997Z,8.38
2017-11-14T15:08:26.620Z,8.32
2017-11-14T15:09:35.240Z,8.46
2017-11-14T15:10:43.872Z,8.42
2017-11-14T15:11:52.497Z,8.45
2017-11-14T15:13:01.119Z,8.42
2017-11-14T15:14:09.748Z,8.42
2017-11-14T15:15:18.366Z,8.39
2017-11-14T15:16:26.994Z,8.38
2017-11-14T15:17:35.878Z,8.44